createdAt,value
2023-02-13T00:01:10.948Z,3.90
2023-02-13T00:03:39.200Z,3.70
2023-02-13T00:06:07.897Z,3.40
2023-02-13T00:08:36.784Z,3.30
2023-02-13T00:11:04.918Z,3.20
2023-02-13T00:13:34.232Z,3.30
2023-02-13T00:16:05.796Z,3.50
2023-02-13T00:18:36.708Z,3.50
2023-02-13T00:21:06.690Z,3.40
2023-02-13T00:23:36.255Z,3.40
2023-02-13T00:26:08.050Z,3.50
2023-02-13T00:28:36.318Z,3.60
2023-02-13T00:31:08.830Z,3.50
2023-02-13T00:33:37.381Z,3.50
2023-02-13T00:36:07.647Z,3.50
2023-02-13T00:38:35.839Z,3.60
2023-02-13T00:41:04.279Z,3.70
2023-02-13T00:43:32.433Z,3.70
2023-02-13T00:46:00.726Z,3.70
2023-02-13T00:48:31.619Z,3.60
2023-02-13T00:51:00.364Z,3.40
2023-02-13T00:53:30.993Z,3.40
2023-02-13T00:55:59.365Z,3.30
2023-02-13T00:58:27.489Z,3.20
2023-02-13T01:00:56.630Z,3.10
2023-02-13T01:03:26.639Z,3.30
2023-02-13T01:05:58.114Z,3.40
2023-02-13T01:08:28.390Z,3.40
2023-02-13T01:10:56.971Z,3.50
2023-02-13T01:13:25.760Z,3.50
2023-02-13T01:15:55.289Z,3.50
2023-02-13T01:18:23.791Z,3.50
2023-02-13T01:21:00.793Z,3.60
2023-02-13T01:23:32.195Z,3.50
2023-02-13T01:26:00.492Z,3.40
2023-02-13T01:28:28.951Z,3.40
2023-02-13T01:30:58.950Z,3.40
2023-02-13T01:33:31.571Z,3.30
2023-02-13T01:36:01.067Z,3.10
2023-02-13T01:38:29.297Z,3.10
2023-02-13T01:40:57.599Z,3.10
2023-02-13T01:43:26.180Z,3.10
2023-02-13T01:45:57.620Z,3.00
2023-02-13T01:48:29.025Z,3.00
2023-02-13T01:51:03.906Z,3.00
2023-02-13T01:53:36.847Z,3.00
2023-02-13T01:56:10.134Z,3.00
2023-02-13T01:58:40.933Z,3.10
2023-02-13T02:01:10.758Z,3.10
2023-02-13T02:03:42.781Z,3.20
2023-02-13T02:06:17.581Z,3.20
2023-02-13T02:08:48.533Z,3.10
2023-02-13T02:11:28.010Z,3.00
2023-02-13T02:13:57.122Z,3.00
2023-02-13T02:16:33.797Z,3.00
2023-02-13T02:19:11.678Z,3.00
2023-02-13T02:22:18.410Z,3.00
2023-02-13T02:25:19.397Z,3.00
2023-02-13T02:28:18.718Z,3.00
2023-02-13T02:31:26.587Z,3.00
2023-02-13T02:34:08.697Z,2.90
2023-02-13T02:36:53.712Z,2.90
2023-02-13T02:39:31.822Z,2.90
2023-02-13T02:42:11.388Z,2.90
2023-02-13T02:44:46.062Z,2.90
2023-02-13T02:47:39.512Z,2.90
2023-02-13T02:50:30.739Z,2.80
2023-02-13T02:53:08.873Z,2.90
2023-02-13T02:55:44.631Z,2.90
2023-02-13T02:58:39.455Z,2.90
2023-02-13T03:01:30.921Z,2.80
2023-02-13T03:04:19.032Z,2.80
2023-02-13T03:06:52.874Z,2.80
2023-02-13T03:09:42.343Z,2.60
2023-02-13T03:12:30.131Z,2.60
2023-02-13T03:14:58.252Z,2.60
2023-02-13T03:17:43.631Z,2.60
2023-02-13T03:20:53.072Z,2.60
2023-02-13T03:23:34.930Z,2.50
2023-02-13T03:26:33.166Z,2.60
2023-02-13T03:29:30.112Z,2.60
2023-02-13T03:32:05.939Z,2.60
2023-02-13T03:34:52.108Z,2.50
2023-02-13T03:37:45.546Z,2.50
2023-02-13T03:40:19.277Z,2.50
2023-02-13T03:42:53.688Z,2.60
2023-02-13T03:45:43.801Z,2.50
2023-02-13T03:48:49.241Z,2.40
2023-02-13T03:51:23.521Z,2.40
2023-02-13T03:53:55.792Z,2.40
2023-02-13T03:56:45.779Z,2.40
2023-02-13T03:59:22.624Z,2.40
2023-02-13T04:02:00.904Z,2.40
2023-02-13T04:04:36.885Z,2.30
2023-02-13T04:07:08.356Z,2.30
2023-02-13T04:09:40.298Z,2.30
2023-02-13T04:12:15.500Z,2.40
2023-02-13T04:14:51.116Z,2.30
2023-02-13T04:17:22.881Z,2.30
2023-02-13T04:19:51.185Z,2.30
2023-02-13T04:22:20.561Z,2.20
2023-02-13T04:24:48.930Z,2.20
2023-02-13T04:27:19.281Z,2.20
2023-02-13T04:29:47.368Z,2.20
2023-02-13T04:32:17.173Z,2.20
2023-02-13T04:34:45.263Z,2.20
2023-02-13T04:37:13.341Z,2.20
2023-02-13T04:39:41.474Z,2.20
2023-02-13T04:42:09.527Z,2.20
2023-02-13T04:44:39.017Z,2.20
2023-02-13T04:47:07.093Z,2.20
2023-02-13T04:49:35.239Z,2.20
2023-02-13T04:52:03.336Z,2.20
2023-02-13T04:54:31.409Z,2.20
2023-02-13T04:56:59.511Z,2.20
2023-02-13T04:59:27.711Z,2.10
2023-02-13T05:01:59.147Z,2.10
2023-02-13T05:04:27.374Z,2.10
2023-02-13T05:06:55.483Z,2.20
2023-02-13T05:09:23.578Z,2.10
2023-02-13T05:11:53.294Z,2.00
2023-02-13T05:14:21.778Z,2.00
2023-02-13T05:16:50.377Z,2.00
2023-02-13T05:19:19.923Z,2.00
2023-02-13T05:22:05.981Z,1.90
2023-02-13T05:24:34.119Z,1.90
2023-02-13T05:27:02.248Z,2.00
2023-02-13T05:29:30.341Z,1.90
2023-02-13T05:31:59.780Z,2.00
2023-02-13T05:34:30.281Z,1.90
2023-02-13T05:36:58.590Z,1.80
2023-02-13T05:39:26.929Z,1.80
2023-02-13T05:41:55.046Z,1.80
2023-02-13T05:44:23.188Z,1.80
2023-02-13T05:46:53.258Z,1.80
2023-02-13T05:49:22.902Z,1.80
2023-02-13T05:51:53.157Z,1.80
2023-02-13T05:54:21.237Z,1.80
2023-02-13T05:56:49.453Z,1.80
2023-02-13T05:59:17.642Z,1.80
2023-02-13T06:01:45.730Z,1.80
2023-02-13T06:04:13.847Z,1.70
2023-02-13T06:06:41.953Z,1.80
2023-02-13T06:09:11.546Z,1.70
2023-02-13T06:11:39.657Z,1.70
2023-02-13T06:14:07.737Z,1.70
2023-02-13T06:16:35.948Z,1.80
2023-02-13T06:19:04.091Z,1.80
2023-02-13T06:21:33.360Z,1.80
2023-02-13T06:24:01.462Z,1.90
2023-02-13T06:26:30.990Z,1.80
2023-02-13T06:28:59.114Z,1.80
2023-02-13T06:31:27.340Z,1.90
2023-02-13T06:33:55.487Z,1.80
2023-02-13T06:36:23.626Z,1.90
2023-02-13T06:38:51.770Z,1.90
2023-02-13T06:41:19.918Z,1.80
2023-02-13T06:43:49.657Z,1.80
2023-02-13T06:46:17.819Z,1.70
2023-02-13T06:48:45.926Z,1.80
2023-02-13T06:51:14.006Z,1.70
2023-02-13T06:53:42.147Z,1.70
2023-02-13T06:56:11.204Z,1.70
2023-02-13T06:58:40.137Z,1.80
2023-02-13T07:01:09.696Z,1.80
2023-02-13T07:03:37.918Z,1.70
2023-02-13T07:06:06.298Z,1.70
2023-02-13T07:08:34.465Z,1.70
2023-02-13T07:11:02.575Z,1.70
2023-02-13T07:13:30.728Z,1.70
2023-02-13T07:16:02.194Z,1.70
2023-02-13T07:18:31.705Z,1.60
2023-02-13T07:21:00.001Z,1.60
2023-02-13T07:23:28.174Z,1.70
2023-02-13T07:25:56.356Z,1.70
2023-02-13T07:28:24.558Z,1.70
2023-02-13T07:30:52.844Z,1.70
2023-02-13T07:33:24.923Z,1.70
2023-02-13T07:35:54.397Z,1.70
2023-02-13T07:38:22.527Z,1.70
2023-02-13T07:40:50.909Z,1.70
2023-02-13T07:43:19.103Z,1.70
2023-02-13T07:45:47.870Z,1.60
2023-02-13T07:48:15.976Z,1.70
2023-02-13T07:50:44.106Z,1.70
2023-02-13T07:53:13.578Z,1.70
2023-02-13T07:55:41.741Z,1.70
2023-02-13T07:58:09.936Z,1.70
2023-02-13T08:00:38.094Z,1.70
2023-02-13T08:03:06.338Z,1.80
2023-02-13T08:05:35.603Z,1.80
2023-02-13T08:08:04.104Z,1.70
2023-02-13T08:10:51.238Z,1.80
2023-02-13T08:13:19.635Z,1.80
2023-02-13T08:15:48.169Z,1.90
2023-02-13T08:18:18.851Z,1.90
2023-02-13T08:20:48.546Z,1.90
2023-02-13T08:23:16.865Z,1.90
2023-02-13T08:25:47.747Z,1.90
2023-02-13T08:28:15.949Z,1.90
2023-02-13T08:30:44.185Z,1.90
2023-02-13T08:33:12.319Z,1.90
2023-02-13T08:35:40.427Z,1.90
2023-02-13T08:38:08.545Z,1.90
2023-02-13T08:40:36.698Z,1.90
2023-02-13T08:43:07.346Z,2.00
2023-02-13T08:45:36.558Z,2.00
2023-02-13T08:48:05.127Z,2.00
2023-02-13T08:50:34.625Z,2.00
2023-02-13T08:53:03.760Z,2.10
2023-02-13T08:55:32.248Z,2.10
2023-02-13T08:58:02.117Z,2.20
2023-02-13T09:00:31.926Z,2.20
2023-02-13T09:03:02.362Z,2.20
2023-02-13T09:05:32.630Z,2.20
2023-02-13T09:08:02.744Z,2.30
2023-02-13T09:10:31.513Z,2.30
2023-02-13T09:13:01.234Z,2.20
2023-02-13T09:15:29.407Z,2.00
2023-02-13T09:17:59.182Z,1.60
2023-02-13T09:20:27.753Z,1.70
2023-02-13T09:22:57.513Z,1.40
2023-02-13T09:25:25.733Z,1.40
2023-02-13T09:27:53.874Z,1.70
2023-02-13T09:30:24.366Z,1.60
2023-02-13T09:32:53.364Z,1.50
2023-02-13T09:35:24.219Z,1.80
2023-02-13T09:37:52.336Z,2.00
2023-02-13T09:57:35.702Z,1.50
2023-02-13T10:00:13.414Z,1.50
2023-02-13T10:02:56.060Z,1.50
2023-02-13T10:05:38.407Z,1.50
2023-02-13T10:08:17.249Z,1.60
2023-02-13T10:10:53.096Z,1.50
2023-02-13T10:13:32.235Z,1.60
2023-02-13T10:16:09.455Z,1.50
2023-02-13T10:18:46.164Z,1.60
2023-02-13T10:21:15.747Z,1.50
2023-02-13T10:23:47.342Z,1.60
2023-02-13T10:26:21.314Z,1.50
2023-02-13T10:29:13.885Z,1.70
2023-02-13T10:31:45.727Z,1.70
2023-02-13T10:34:17.223Z,1.60
2023-02-13T10:36:47.189Z,1.50
2023-02-13T10:39:24.751Z,1.60
2023-02-13T10:41:57.758Z,1.80
2023-02-13T10:44:40.340Z,1.60
2023-02-13T10:47:25.844Z,1.70
2023-02-13T10:50:04.356Z,1.70
2023-02-13T10:52:45.446Z,1.50
2023-02-13T10:55:30.264Z,1.60
2023-02-13T10:58:09.420Z,1.50
2023-02-13T11:00:43.296Z,1.50
2023-02-13T11:03:19.973Z,1.40
2023-02-13T11:05:48.347Z,1.40
2023-02-13T11:08:22.243Z,1.50
2023-02-13T11:10:50.780Z,1.60
2023-02-13T11:13:21.243Z,1.60
2023-02-13T11:16:01.985Z,1.50
2023-02-13T11:18:34.335Z,1.60
2023-02-13T11:21:08.867Z,1.50
2023-02-13T11:23:41.621Z,1.50
2023-02-13T11:26:12.563Z,1.50
2023-02-13T11:28:48.057Z,1.50
2023-02-13T11:31:25.357Z,1.60
2023-02-13T11:33:58.585Z,1.70
2023-02-13T11:36:29.373Z,1.60
2023-02-13T11:39:02.936Z,1.70
2023-02-13T11:41:33.097Z,1.50
2023-02-13T11:44:04.175Z,2.10
2023-02-13T11:46:46.058Z,1.80
2023-02-13T11:49:20.945Z,1.80
2023-02-13T11:51:50.678Z,1.90
2023-02-13T11:54:31.651Z,1.90
2023-02-13T11:57:04.891Z,2.00
2023-02-13T11:59:40.995Z,1.80
2023-02-13T12:02:18.731Z,1.80
2023-02-13T12:04:49.964Z,1.90
2023-02-13T12:07:22.413Z,1.90
2023-02-13T12:09:55.257Z,1.80
2023-02-13T12:12:29.949Z,1.90
2023-02-13T12:14:59.364Z,1.90
2023-02-13T12:17:32.535Z,2.00
2023-02-13T12:20:02.351Z,2.00
2023-02-13T12:22:42.958Z,2.00
2023-02-13T12:25:35.725Z,1.90
2023-02-13T12:28:15.865Z,2.00
2023-02-13T12:31:22.095Z,1.90
2023-02-13T12:34:18.739Z,2.00
2023-02-13T12:37:01.433Z,2.00
2023-02-13T12:39:34.921Z,2.00
2023-02-13T12:42:23.153Z,2.00
2023-02-13T12:45:05.657Z,2.00
2023-02-13T12:47:41.097Z,2.10
2023-02-13T12:50:41.009Z,2.20
2023-02-13T12:53:35.602Z,2.20
2023-02-13T12:56:31.930Z,2.20
2023-02-13T12:59:09.305Z,2.30
2023-02-13T13:01:55.807Z,2.30
2023-02-13T13:04:31.009Z,2.20
2023-02-13T13:07:18.846Z,2.20
2023-02-13T13:10:01.864Z,2.20
2023-02-13T13:12:42.303Z,2.10
2023-02-13T13:15:18.325Z,2.30
2023-02-13T13:17:59.242Z,2.10
2023-02-13T13:20:57.883Z,2.10
2023-02-13T13:23:32.500Z,2.20
2023-02-13T13:26:15.509Z,2.30
2023-02-13T13:28:47.080Z,2.20
2023-02-13T13:31:16.618Z,2.20
2023-02-13T13:33:48.252Z,2.20
2023-02-13T13:36:25.325Z,2.40
2023-02-13T13:39:01.857Z,2.40
2023-02-13T13:41:42.649Z,2.40
2023-02-13T13:45:02.150Z,2.40
2023-02-13T13:47:47.083Z,2.30
2023-02-13T13:50:22.355Z,2.10
2023-02-13T13:53:10.869Z,2.20
2023-02-13T13:56:02.869Z,2.20
2023-02-13T13:58:41.460Z,2.40
2023-02-13T14:01:29.485Z,2.30
2023-02-13T14:03:59.391Z,2.40
2023-02-13T14:06:29.554Z,2.40
2023-02-13T14:09:03.999Z,2.50
2023-02-13T14:11:35.812Z,2.40
2023-02-13T14:14:53.083Z,2.40
2023-02-13T14:18:01.261Z,2.50
2023-02-13T14:20:36.937Z,2.50
2023-02-13T14:23:49.645Z,2.60
2023-02-13T14:26:31.172Z,2.70
2023-02-13T14:29:30.895Z,2.60
2023-02-13T14:32:03.346Z,2.60
2023-02-13T14:34:33.920Z,2.60
2023-02-13T14:37:21.020Z,2.50
2023-02-13T14:40:25.211Z,2.60
2023-02-13T14:42:57.457Z,2.60
2023-02-13T14:45:32.298Z,2.60
2023-02-13T14:48:07.407Z,2.60
2023-02-13T14:50:46.550Z,2.70
2023-02-13T14:53:24.661Z,2.70
2023-02-13T14:55:59.657Z,2.60
2023-02-13T14:58:32.463Z,2.70
2023-02-13T15:01:05.959Z,2.80
2023-02-13T15:03:42.055Z,2.80
2023-02-13T15:06:17.615Z,2.80
2023-02-13T15:08:49.690Z,2.70
2023-02-13T15:11:39.070Z,2.70
2023-02-13T15:14:18.361Z,2.70
2023-02-13T15:16:51.541Z,2.80
2023-02-13T15:19:21.493Z,2.70
2023-02-13T15:21:55.942Z,2.70
2023-02-13T15:24:25.612Z,2.70
2023-02-13T15:27:02.084Z,2.80
2023-02-13T15:29:47.666Z,2.80
2023-02-13T15:32:27.238Z,2.80
2023-02-13T15:34:55.304Z,2.80
2023-02-13T15:37:25.139Z,2.80
2023-02-13T15:39:53.250Z,2.80
2023-02-13T15:42:21.873Z,2.80
2023-02-13T15:44:55.202Z,2.80
2023-02-13T15:47:29.356Z,2.80
2023-02-13T15:49:57.774Z,2.80
2023-02-13T15:52:32.373Z,2.70
2023-02-13T15:55:00.557Z,3.00
2023-02-13T15:57:30.217Z,3.10
2023-02-13T15:59:59.709Z,3.10
2023-02-13T16:02:36.154Z,3.30
2023-02-13T16:05:04.532Z,3.20
2023-02-13T16:07:47.864Z,3.10
2023-02-13T16:10:16.783Z,3.20
2023-02-13T16:12:48.164Z,3.30
2023-02-13T16:15:19.343Z,3.20
2023-02-13T16:17:49.951Z,3.30
2023-02-13T16:20:22.209Z,3.50
2023-02-13T16:22:53.492Z,3.70
2023-02-13T16:25:26.117Z,3.40
2023-02-13T16:27:57.642Z,3.30
2023-02-13T16:30:33.827Z,3.30
2023-02-13T16:33:22.691Z,3.30
2023-02-13T16:35:52.537Z,3.30
2023-02-13T16:38:30.904Z,3.20
2023-02-13T16:41:00.695Z,3.20
2023-02-13T16:43:46.496Z,3.30
2023-02-13T16:46:25.222Z,3.40
2023-02-13T16:49:21.462Z,3.30
2023-02-13T16:51:52.840Z,3.30
2023-02-13T16:54:33.246Z,3.20
2023-02-13T16:57:04.565Z,3.20
2023-02-13T16:59:59.726Z,3.50
2023-02-13T17:02:28.653Z,3.70
2023-02-13T17:05:03.198Z,3.70
2023-02-13T17:07:34.867Z,3.60
2023-02-13T17:10:06.061Z,3.70
2023-02-13T17:12:38.500Z,3.80
2023-02-13T17:15:13.035Z,4.00
2023-02-13T17:17:41.462Z,4.00
2023-02-13T17:20:17.667Z,4.10
2023-02-13T17:22:47.925Z,4.10
2023-02-13T17:25:21.957Z,4.10
2023-02-13T17:27:50.748Z,4.00
2023-02-13T17:30:20.783Z,4.00
2023-02-13T17:32:51.171Z,3.40
2023-02-13T17:35:20.755Z,3.40
2023-02-13T17:37:48.938Z,3.60
2023-02-13T17:40:18.029Z,3.80
2023-02-13T17:42:47.746Z,4.00
2023-02-13T17:45:18.528Z,4.00
2023-02-13T17:47:46.957Z,4.10
2023-02-13T17:50:17.318Z,4.20
2023-02-13T17:52:49.072Z,4.20
2023-02-13T17:55:21.080Z,4.10
2023-02-13T17:57:49.499Z,4.20
2023-02-13T18:00:18.524Z,3.90
2023-02-13T18:02:47.934Z,4.00
2023-02-13T18:05:16.888Z,4.10
2023-02-13T18:07:47.332Z,4.20
2023-02-13T18:10:17.902Z,4.20
2023-02-13T18:12:47.414Z,4.30
2023-02-13T18:15:16.354Z,4.30
2023-02-13T18:17:44.854Z,4.20
2023-02-13T18:20:14.727Z,4.30
2023-02-13T18:22:43.058Z,4.30
2023-02-13T18:25:13.141Z,4.30
2023-02-13T18:27:41.629Z,4.20
2023-02-13T18:30:12.520Z,4.20
2023-02-13T18:32:40.712Z,4.20
2023-02-13T18:35:09.427Z,4.10
2023-02-13T18:37:39.173Z,4.10
2023-02-13T18:40:08.781Z,4.00
2023-02-13T18:42:38.957Z,4.00
2023-02-13T18:45:07.931Z,3.90
2023-02-13T18:47:36.070Z,3.90
2023-02-13T18:50:04.749Z,3.60
2023-02-13T18:52:32.846Z,3.70
2023-02-13T18:55:00.911Z,3.70
2023-02-13T18:57:29.257Z,3.90
2023-02-13T18:59:58.856Z,4.00
2023-02-13T19:02:27.048Z,4.00
2023-02-13T19:04:55.159Z,4.00
2023-02-13T19:07:23.473Z,3.90
2023-02-13T19:09:51.588Z,3.90
2023-02-13T19:12:19.787Z,4.10
2023-02-13T19:14:48.137Z,4.10
2023-02-13T19:17:17.828Z,4.10
2023-02-13T19:19:46.382Z,4.10
2023-02-13T19:22:14.553Z,4.00
2023-02-13T19:24:42.657Z,4.10
2023-02-13T19:27:11.350Z,4.10
2023-02-13T19:29:39.488Z,4.10
2023-02-13T19:32:07.703Z,4.00
2023-02-13T19:34:37.241Z,4.00
2023-02-13T19:37:05.361Z,3.90
2023-02-13T19:39:33.530Z,3.90
2023-02-13T19:42:01.605Z,3.90
2023-02-13T19:44:29.767Z,3.90
2023-02-13T19:46:57.902Z,3.90
2023-02-13T19:49:26.049Z,3.80
2023-02-13T19:51:55.525Z,3.80
2023-02-13T19:54:23.712Z,3.70
2023-02-13T19:56:54.626Z,3.80
2023-02-13T19:59:22.765Z,3.70
2023-02-13T20:01:50.926Z,3.80
2023-02-13T20:04:19.057Z,3.70
2023-02-13T20:06:47.132Z,3.80
2023-02-13T20:09:16.664Z,3.80
2023-02-13T20:11:45.436Z,3.80
2023-02-13T20:14:15.438Z,3.70
2023-02-13T20:16:45.656Z,3.70
2023-02-13T20:19:14.228Z,3.40
2023-02-13T20:21:43.454Z,3.40
2023-02-13T20:24:13.032Z,3.40
2023-02-13T20:26:42.876Z,3.40
2023-02-13T20:29:11.023Z,3.40
2023-02-13T20:31:41.353Z,3.20
2023-02-13T20:34:09.981Z,3.40
2023-02-13T20:36:38.115Z,3.50
2023-02-13T20:39:07.797Z,3.60
2023-02-13T20:41:37.990Z,3.70
2023-02-13T20:44:09.435Z,3.70
2023-02-13T20:46:39.755Z,3.70
2023-02-13T20:49:08.951Z,3.70
2023-02-13T20:51:37.548Z,3.70
2023-02-13T20:54:06.499Z,3.70
2023-02-13T20:56:34.602Z,3.70
2023-02-13T20:59:03.349Z,3.70
2023-02-13T21:01:34.993Z,3.70
2023-02-13T21:04:03.443Z,3.70
2023-02-13T21:06:33.395Z,3.70
2023-02-13T21:09:02.608Z,3.70
2023-02-13T21:11:34.342Z,3.60
2023-02-13T21:14:03.381Z,3.60
2023-02-13T21:16:34.620Z,3.60
2023-02-13T21:19:05.615Z,3.70
2023-02-13T21:21:35.354Z,3.70
2023-02-13T21:24:08.387Z,3.70
2023-02-13T21:26:37.590Z,3.70
2023-02-13T21:29:06.894Z,3.70
2023-02-13T21:31:38.310Z,3.60
2023-02-13T21:34:09.134Z,3.60
2023-02-13T21:36:38.333Z,3.60
2023-02-13T21:39:09.074Z,3.60
2023-02-13T21:41:38.179Z,3.60
2023-02-13T21:44:07.091Z,3.60
2023-02-13T21:46:37.395Z,3.60
2023-02-13T21:49:07.761Z,3.50
2023-02-13T21:51:37.768Z,3.50
2023-02-13T21:54:06.743Z,3.40
2023-02-13T21:56:37.117Z,3.30
2023-02-13T21:59:06.301Z,3.40
2023-02-13T22:01:47.509Z,3.50
2023-02-13T22:04:15.966Z,3.40
2023-02-13T22:06:44.861Z,3.40
2023-02-13T22:09:15.437Z,3.30
2023-02-13T22:11:44.305Z,3.40
2023-02-13T22:14:15.900Z,3.40
2023-02-13T22:16:46.703Z,3.40
2023-02-13T22:19:16.910Z,3.10
2023-02-13T22:21:46.292Z,3.10
2023-02-13T22:24:14.966Z,2.90
2023-02-13T22:26:45.303Z,3.00
2023-02-13T22:29:15.969Z,3.10
2023-02-13T22:31:46.467Z,3.20
2023-02-13T22:34:15.842Z,3.30
2023-02-13T22:36:44.165Z,3.30
2023-02-13T22:39:12.813Z,3.20
2023-02-13T22:41:41.101Z,3.30
2023-02-13T22:44:09.303Z,3.30
2023-02-13T22:46:37.576Z,3.20
2023-02-13T22:49:07.245Z,3.20
2023-02-13T22:51:37.633Z,3.30
2023-02-13T22:54:06.925Z,3.20
2023-02-13T22:56:35.152Z,3.20
2023-02-13T22:59:03.612Z,3.20
2023-02-13T23:01:31.704Z,3.20
2023-02-13T23:04:00.108Z,3.20
2023-02-13T23:06:29.771Z,3.00
2023-02-13T23:08:58.673Z,2.90
2023-02-13T23:11:46.279Z,2.90
2023-02-13T23:14:14.971Z,3.00
2023-02-13T23:17:01.545Z,3.00
2023-02-13T23:19:30.270Z,2.90
2023-02-13T23:22:00.172Z,2.80
2023-02-13T23:24:28.770Z,2.90
2023-02-13T23:26:56.906Z,2.90
2023-02-13T23:29:25.062Z,2.90
2023-02-13T23:31:53.453Z,2.90
2023-02-13T23:34:21.655Z,2.80
2023-02-13T23:36:50.045Z,2.80
2023-02-13T23:39:19.903Z,2.80
2023-02-13T23:41:48.015Z,2.70
2023-02-13T23:44:16.142Z,2.70
2023-02-13T23:46:44.365Z,2.70
2023-02-13T23:49:12.498Z,2.70
2023-02-13T23:51:40.648Z,2.70
2023-02-13T23:54:08.829Z,2.60
2023-02-13T23:56:38.330Z,2.50
2023-02-13T23:59:06.486Z,2.50
